createdAt,value
2019-06-20T00:00:07.454Z,52.60
2019-06-20T00:01:05.474Z,52.60
2019-06-20T00:02:08.085Z,52.60
2019-06-20T00:03:05.194Z,52.50
2019-06-20T00:04:05.566Z,52.50
2019-06-20T00:05:11.004Z,52.50
2019-06-20T00:06:05.064Z,52.50
2019-06-20T00:07:05.176Z,52.50
2019-06-20T00:08:07.829Z,52.70
2019-06-20T00:09:09.980Z,52.70
2019-06-20T00:10:05.007Z,52.70
2019-06-20T00:11:07.700Z,52.90
2019-06-20T00:12:09.766Z,52.90
2019-06-20T00:13:10.064Z,52.90
2019-06-20T00:14:10.240Z,52.90
2019-06-20T00:15:05.268Z,52.90
2019-06-20T00:16:09.938Z,52.90
2019-06-20T00:17:05.218Z,52.80
2019-06-20T00:18:05.506Z,53.00
2019-06-20T00:19:05.645Z,53.00
2019-06-20T00:20:09.817Z,53.00
2019-06-20T00:21:09.966Z,53.10
2019-06-20T00:22:05.043Z,53.10
2019-06-20T00:23:07.819Z,53.30
2019-06-20T00:24:05.882Z,53.00
2019-06-20T00:25:05.039Z,53.10
2019-06-20T00:26:07.746Z,53.20
2019-06-20T00:27:05.883Z,53.20
2019-06-20T00:28:10.285Z,53.30
2019-06-20T00:29:05.332Z,53.30
2019-06-20T00:30:05.583Z,53.40
2019-06-20T00:31:08.187Z,53.50
2019-06-20T00:32:07.902Z,53.40
2019-06-20T00:33:07.584Z,53.40
2019-06-20T00:34:05.558Z,53.40
2019-06-20T00:35:05.821Z,53.50
2019-06-20T00:36:07.654Z,53.60
2019-06-20T00:37:06.516Z,53.70
2019-06-20T00:38:10.829Z,54.00
2019-06-20T00:39:05.843Z,54.10
2019-06-20T00:40:08.102Z,54.20
2019-06-20T00:41:05.409Z,54.20
2019-06-20T00:42:08.033Z,54.20
2019-06-20T00:43:18.283Z,54.20
2019-06-20T00:44:08.062Z,54.20
2019-06-20T00:45:07.726Z,54.10
2019-06-20T00:46:09.759Z,54.30
2019-06-20T00:47:05.889Z,54.20
2019-06-20T00:48:07.633Z,54.30
2019-06-20T00:49:05.686Z,54.30
2019-06-20T00:50:09.975Z,54.40
2019-06-20T00:51:05.023Z,54.40
2019-06-20T00:52:10.262Z,54.50
2019-06-20T00:53:07.872Z,54.60
2019-06-20T00:54:10.002Z,54.70
2019-06-20T00:55:05.226Z,54.70
2019-06-20T00:56:05.383Z,54.70
2019-06-20T00:57:05.611Z,55.40
2019-06-20T00:58:05.791Z,55.30
2019-06-20T00:59:10.944Z,55.10
2019-06-20T01:00:05.937Z,55.00
2019-06-20T01:01:05.085Z,55.00
2019-06-20T01:02:07.757Z,55.10
2019-06-20T01:03:05.756Z,55.10
2019-06-20T01:04:05.941Z,54.90
2019-06-20T01:05:05.106Z,55.00
2019-06-20T01:06:05.346Z,54.90
2019-06-20T01:07:05.521Z,54.90
2019-06-20T01:08:09.826Z,54.90
2019-06-20T01:09:05.888Z,54.90
2019-06-20T01:10:07.580Z,54.90
2019-06-20T01:11:08.198Z,54.80
2019-06-20T01:12:07.700Z,54.90
2019-06-20T01:13:10.835Z,54.90
2019-06-20T01:14:10.014Z,55.10
2019-06-20T01:15:05.151Z,55.10
2019-06-20T01:16:05.325Z,55.00
2019-06-20T01:17:08.146Z,55.00
2019-06-20T01:18:05.207Z,55.00
2019-06-20T01:19:07.885Z,54.90
2019-06-20T01:20:05.925Z,54.90
2019-06-20T01:21:05.043Z,54.80
2019-06-20T01:22:05.133Z,54.70
2019-06-20T01:23:05.389Z,54.80
2019-06-20T01:24:08.085Z,54.70
2019-06-20T01:25:05.282Z,54.70
2019-06-20T01:26:10.563Z,54.60
2019-06-20T01:27:05.577Z,54.70
2019-06-20T01:28:05.729Z,54.70
2019-06-20T01:29:05.925Z,54.60
2019-06-20T01:30:07.644Z,54.50
2019-06-20T01:31:08.175Z,54.50
2019-06-20T01:32:05.192Z,54.50
2019-06-20T01:33:07.832Z,54.70
2019-06-20T01:34:05.816Z,54.70
2019-06-20T01:35:07.471Z,54.70
2019-06-20T01:36:08.026Z,54.60
2019-06-20T01:37:07.537Z,54.60
2019-06-20T01:38:08.019Z,54.60
2019-06-20T01:39:05.067Z,54.60
2019-06-20T01:40:08.013Z,54.80
2019-06-20T01:41:06.630Z,54.80
2019-06-20T01:42:08.244Z,54.90
2019-06-20T01:43:05.505Z,54.90
2019-06-20T01:44:05.682Z,55.00
2019-06-20T01:45:05.924Z,55.00
2019-06-20T01:46:07.652Z,55.10
2019-06-20T01:47:05.596Z,55.20
2019-06-20T01:48:05.746Z,55.00
2019-06-20T01:49:05.826Z,55.20
2019-06-20T01:50:04.952Z,55.20
2019-06-20T01:51:13.120Z,55.20
2019-06-20T01:52:05.131Z,55.20
2019-06-20T01:53:08.251Z,55.30
2019-06-20T01:54:10.589Z,55.40
2019-06-20T01:55:05.651Z,55.40
2019-06-20T01:56:05.227Z,55.40
2019-06-20T01:57:05.329Z,55.40
2019-06-20T01:58:08.153Z,55.50
2019-06-20T01:59:05.429Z,55.50
2019-06-20T02:00:05.690Z,55.40
2019-06-20T02:01:07.951Z,55.30
2019-06-20T02:02:05.093Z,55.40
2019-06-20T02:03:07.832Z,55.60
2019-06-20T02:04:05.882Z,55.60
2019-06-20T02:05:07.595Z,55.70
2019-06-20T02:06:08.182Z,55.70
2019-06-20T02:07:05.309Z,55.70
2019-06-20T02:08:05.495Z,55.70
2019-06-20T02:09:08.104Z,55.80
2019-06-20T02:10:07.604Z,55.70
2019-06-20T02:11:05.712Z,55.80
2019-06-20T02:12:10.052Z,55.80
2019-06-20T02:13:05.109Z,55.80
2019-06-20T02:14:07.996Z,55.80
2019-06-20T02:15:05.460Z,55.70
2019-06-20T02:16:05.673Z,55.70
2019-06-20T02:17:05.910Z,55.70
2019-06-20T02:18:05.036Z,55.80
2019-06-20T02:19:05.206Z,55.90
2019-06-20T02:20:07.908Z,56.00
2019-06-20T02:21:05.890Z,56.00
2019-06-20T02:22:05.103Z,56.00
2019-06-20T02:23:07.773Z,55.90
2019-06-20T02:24:09.914Z,55.90
2019-06-20T02:25:07.648Z,56.00
2019-06-20T02:26:05.736Z,55.90
2019-06-20T02:27:05.950Z,56.30
2019-06-20T02:28:12.651Z,56.20
2019-06-20T02:29:05.627Z,56.20
2019-06-20T02:30:05.780Z,56.10
2019-06-20T02:31:10.987Z,56.30
2019-06-20T02:32:07.570Z,56.20
2019-06-20T02:33:08.172Z,56.20
2019-06-20T02:34:05.252Z,56.20
2019-06-20T02:35:05.592Z,56.20
2019-06-20T02:36:06.022Z,56.20
2019-06-20T02:37:07.696Z,56.50
2019-06-20T02:38:05.669Z,56.40
2019-06-20T02:39:05.960Z,56.50
2019-06-20T02:40:10.453Z,56.50
2019-06-20T02:41:05.545Z,56.50
2019-06-20T02:42:05.688Z,56.70
2019-06-20T02:43:10.085Z,56.80
2019-06-20T02:44:05.327Z,56.80
2019-06-20T02:45:05.576Z,56.80
2019-06-20T02:46:07.912Z,56.70
2019-06-20T02:47:07.547Z,56.80
2019-06-20T02:48:05.629Z,56.80
2019-06-20T02:49:08.326Z,57.00
2019-06-20T02:50:09.932Z,57.00
2019-06-20T02:51:07.604Z,56.90
2019-06-20T02:52:05.700Z,56.90
2019-06-20T02:53:05.852Z,57.20
2019-06-20T02:54:07.496Z,57.30
2019-06-20T02:55:08.170Z,57.50
2019-06-20T02:56:05.438Z,57.50
2019-06-20T02:57:08.342Z,57.60
2019-06-20T02:58:04.983Z,57.60
2019-06-20T02:59:07.891Z,57.40
2019-06-20T03:00:07.555Z,57.60
2019-06-20T03:01:08.169Z,57.90
2019-06-20T03:02:05.353Z,57.90
2019-06-20T03:03:08.003Z,57.90
2019-06-20T03:04:07.651Z,58.10
2019-06-20T03:05:05.656Z,58.20
2019-06-20T03:06:05.839Z,58.30
2019-06-20T03:07:04.974Z,58.70
2019-06-20T03:08:05.209Z,60.00
2019-06-20T03:09:07.889Z,60.80
2019-06-20T03:10:09.938Z,61.00
2019-06-20T03:11:05.134Z,61.00
2019-06-20T03:12:05.274Z,61.00
2019-06-20T03:13:10.104Z,61.70
2019-06-20T03:14:07.798Z,61.90
2019-06-20T03:15:10.187Z,62.70
2019-06-20T03:16:07.822Z,62.80
2019-06-20T03:17:09.961Z,62.70
2019-06-20T03:18:05.005Z,62.80
2019-06-20T03:19:07.696Z,63.60
2019-06-20T03:20:08.257Z,64.80
2019-06-20T03:21:05.254Z,64.90
2019-06-20T03:22:07.989Z,65.90
2019-06-20T03:23:05.089Z,65.90
2019-06-20T03:24:05.331Z,65.90
2019-06-20T03:25:05.392Z,66.20
2019-06-20T03:26:10.569Z,66.20
2019-06-20T03:27:08.026Z,66.20
2019-06-20T03:28:07.638Z,66.10
2019-06-20T03:29:05.592Z,66.20
2019-06-20T03:30:05.696Z,66.90
2019-06-20T03:31:09.962Z,66.50
2019-06-20T03:32:05.040Z,66.60
2019-06-20T03:33:07.694Z,66.80
2019-06-20T03:34:05.744Z,66.80
2019-06-20T03:35:05.876Z,67.00
2019-06-20T03:36:04.966Z,66.90
2019-06-20T03:37:07.628Z,67.00
2019-06-20T03:38:05.752Z,67.00
2019-06-20T03:39:07.552Z,66.80
2019-06-20T03:40:05.679Z,66.90
2019-06-20T03:41:05.973Z,66.90
2019-06-20T03:42:07.981Z,67.20
2019-06-20T03:43:05.050Z,67.20
2019-06-20T03:44:08.018Z,66.90
2019-06-20T03:45:05.114Z,66.90
2019-06-20T03:46:05.183Z,67.00
2019-06-20T03:47:07.828Z,67.60
2019-06-20T03:48:05.910Z,67.60
2019-06-20T03:49:07.786Z,67.80
2019-06-20T03:50:08.375Z,67.70
2019-06-20T03:51:09.943Z,67.70
2019-06-20T03:52:07.637Z,68.70
2019-06-20T03:53:08.269Z,68.40
2019-06-20T03:54:07.945Z,68.60
2019-06-20T03:55:09.976Z,68.70
2019-06-20T03:56:07.625Z,68.80
2019-06-20T03:57:05.617Z,68.80
2019-06-20T03:58:05.852Z,69.20
2019-06-20T03:59:05.059Z,69.50
2019-06-20T04:00:05.321Z,70.00
2019-06-20T04:01:07.959Z,69.80
2019-06-20T04:02:12.522Z,69.90
2019-06-20T04:03:05.484Z,69.90
2019-06-20T04:04:05.646Z,70.10
2019-06-20T04:05:05.996Z,70.30
2019-06-20T04:06:05.175Z,70.80
2019-06-20T04:07:05.285Z,70.60
2019-06-20T04:08:05.387Z,70.60
2019-06-20T04:09:05.454Z,70.80
2019-06-20T04:10:08.188Z,71.00
2019-06-20T04:11:05.250Z,71.00
2019-06-20T04:12:05.521Z,71.30
2019-06-20T04:13:05.696Z,70.80
2019-06-20T04:14:05.819Z,70.80
2019-06-20T04:15:19.497Z,70.90
2019-06-20T04:16:05.843Z,71.40
2019-06-20T04:17:07.635Z,72.00
2019-06-20T04:18:05.692Z,72.10
2019-06-20T04:19:05.824Z,72.00
2019-06-20T04:20:07.490Z,72.10
2019-06-20T04:21:05.516Z,72.10
2019-06-20T04:22:08.380Z,72.30
2019-06-20T04:23:05.067Z,72.30
2019-06-20T04:24:10.436Z,72.50
2019-06-20T04:25:09.930Z,72.80
2019-06-20T04:26:05.105Z,72.80
2019-06-20T04:27:05.299Z,73.10
2019-06-20T04:28:07.972Z,73.00
2019-06-20T04:29:04.957Z,73.00
2019-06-20T04:30:05.051Z,73.30
2019-06-20T04:31:07.782Z,73.50
2019-06-20T04:32:09.961Z,73.30
2019-06-20T04:33:05.328Z,73.30
2019-06-20T04:34:08.239Z,73.10
2019-06-20T04:35:10.467Z,72.90
2019-06-20T04:36:05.629Z,72.90
2019-06-20T04:37:11.110Z,73.20
2019-06-20T04:38:05.154Z,73.00
2019-06-20T04:39:19.760Z,72.90
2019-06-20T04:40:07.627Z,73.10
2019-06-20T04:41:05.716Z,73.10
2019-06-20T04:42:09.943Z,73.20
2019-06-20T04:43:07.669Z,73.00
2019-06-20T04:44:08.271Z,73.10
2019-06-20T04:45:05.375Z,73.10
2019-06-20T04:46:05.681Z,73.10
2019-06-20T04:47:09.941Z,73.30
2019-06-20T04:48:05.085Z,73.30
2019-06-20T04:49:12.831Z,73.20
2019-06-20T04:50:10.956Z,73.20
2019-06-20T04:51:07.823Z,73.10
2019-06-20T04:52:09.977Z,73.10
2019-06-20T04:53:07.722Z,73.10
2019-06-20T04:54:05.843Z,73.10
2019-06-20T04:55:05.069Z,73.20
2019-06-20T04:56:06.155Z,73.30
2019-06-20T04:57:07.931Z,73.10
2019-06-20T04:58:07.724Z,73.00
2019-06-20T04:59:08.263Z,73.10
2019-06-20T05:00:05.508Z,73.00
2019-06-20T05:01:08.267Z,73.40
2019-06-20T05:02:05.507Z,73.50
2019-06-20T05:03:05.929Z,73.60
2019-06-20T05:04:05.159Z,73.50
2019-06-20T05:05:05.550Z,73.20
2019-06-20T05:06:08.264Z,73.10
2019-06-20T05:07:05.326Z,73.00
2019-06-20T05:08:05.666Z,72.70
2019-06-20T05:09:05.989Z,73.20
2019-06-20T05:10:05.195Z,73.80
2019-06-20T05:11:05.379Z,73.40
2019-06-20T05:12:05.526Z,73.30
2019-06-20T05:13:05.709Z,72.80
2019-06-20T05:14:10.986Z,72.40
2019-06-20T05:15:07.585Z,72.50
2019-06-20T05:16:08.272Z,72.60
2019-06-20T05:17:07.632Z,72.60
2019-06-20T05:18:05.037Z,73.00
2019-06-20T05:19:05.362Z,72.60
2019-06-20T05:20:05.731Z,72.60
2019-06-20T05:21:05.937Z,72.80
2019-06-20T05:22:05.423Z,72.80
2019-06-20T05:23:05.538Z,72.90
2019-06-20T05:24:08.184Z,73.30
2019-06-20T05:25:05.252Z,73.30
2019-06-20T05:26:08.023Z,72.90
2019-06-20T05:27:05.252Z,72.90
2019-06-20T05:28:08.011Z,72.90
2019-06-20T05:29:05.839Z,72.90
2019-06-20T05:30:05.058Z,72.80
2019-06-20T05:31:05.234Z,72.60
2019-06-20T05:32:05.004Z,72.60
2019-06-20T05:33:05.162Z,72.60
2019-06-20T05:34:07.975Z,72.40
2019-06-20T05:35:05.205Z,72.40
2019-06-20T05:36:05.539Z,72.40
2019-06-20T05:37:05.890Z,72.20
2019-06-20T05:38:08.398Z,71.80
2019-06-20T05:39:05.494Z,71.90
2019-06-20T05:40:08.373Z,71.70
2019-06-20T05:41:05.652Z,71.80
2019-06-20T05:42:06.095Z,71.40
2019-06-20T05:43:07.943Z,71.40
2019-06-20T05:44:07.660Z,71.40
2019-06-20T05:45:08.351Z,71.20
2019-06-20T05:46:11.288Z,71.10
2019-06-20T05:47:14.070Z,71.10
2019-06-20T05:48:13.059Z,70.90
2019-06-20T05:49:07.698Z,70.50
2019-06-20T05:50:05.757Z,70.70
2019-06-20T05:51:06.647Z,70.30
2019-06-20T05:52:05.835Z,70.20
2019-06-20T05:53:07.681Z,69.90
2019-06-20T05:54:08.199Z,69.70
2019-06-20T05:55:05.249Z,69.70
2019-06-20T05:56:10.263Z,69.80
2019-06-20T05:57:10.693Z,69.90
2019-06-20T05:58:08.264Z,69.90
2019-06-20T05:59:05.382Z,69.90
2019-06-20T06:00:10.275Z,69.90
2019-06-20T06:01:11.588Z,70.00
2019-06-20T06:02:05.944Z,70.10
2019-06-20T06:03:07.561Z,70.30
2019-06-20T06:04:05.808Z,70.00
2019-06-20T06:05:05.116Z,69.90
2019-06-20T06:06:07.930Z,70.00
2019-06-20T06:07:05.543Z,70.00
2019-06-20T06:08:05.833Z,70.00
2019-06-20T06:09:07.623Z,69.40
2019-06-20T06:10:05.915Z,69.40
2019-06-20T06:11:05.094Z,69.10
2019-06-20T06:12:05.349Z,68.90
2019-06-20T06:13:08.022Z,68.30
2019-06-20T06:14:05.140Z,68.30
2019-06-20T06:15:07.976Z,67.70
2019-06-20T06:16:07.572Z,67.70
2019-06-20T06:17:08.239Z,67.30
2019-06-20T06:18:07.891Z,67.30
2019-06-20T06:19:06.080Z,67.20
2019-06-20T06:20:05.307Z,66.90
2019-06-20T06:21:05.506Z,66.70
2019-06-20T06:22:08.258Z,66.10
2019-06-20T06:23:05.439Z,66.10
2019-06-20T06:24:08.224Z,64.80
2019-06-20T06:25:05.490Z,64.70
2019-06-20T06:26:13.410Z,63.50
2019-06-20T06:27:05.511Z,63.50
2019-06-20T06:28:05.735Z,63.60
2019-06-20T06:29:05.092Z,62.20
2019-06-20T06:30:05.266Z,61.60
2019-06-20T06:31:08.278Z,59.60
2019-06-20T06:32:05.296Z,59.60
2019-06-20T06:33:05.408Z,59.50
2019-06-20T06:34:05.516Z,59.70
2019-06-20T06:35:08.160Z,59.20
2019-06-20T06:36:05.221Z,59.20
2019-06-20T06:37:05.674Z,58.90
2019-06-20T06:38:08.374Z,57.60
2019-06-20T06:39:05.555Z,57.60
2019-06-20T06:40:08.440Z,56.50
2019-06-20T06:41:08.018Z,55.20
2019-06-20T06:42:05.177Z,55.20
2019-06-20T06:43:05.345Z,55.40
2019-06-20T06:44:10.124Z,55.00
2019-06-20T06:45:08.026Z,54.80
2019-06-20T06:46:07.612Z,54.50
2019-06-20T06:47:05.568Z,54.50
2019-06-20T06:48:08.280Z,53.70
2019-06-20T06:49:05.354Z,53.60
2019-06-20T06:50:05.518Z,53.20
2019-06-20T06:51:05.649Z,53.10
2019-06-20T06:52:08.373Z,52.80
2019-06-20T06:53:08.087Z,52.10
2019-06-20T06:54:10.568Z,51.90
2019-06-20T06:55:08.390Z,51.00
2019-06-20T06:56:05.562Z,51.10
2019-06-20T06:57:05.782Z,51.40
2019-06-20T06:58:10.776Z,50.50
2019-06-20T06:59:05.885Z,50.50
2019-06-20T07:00:07.644Z,50.00
2019-06-20T07:01:09.353Z,50.00
2019-06-20T07:02:05.330Z,50.40
2019-06-20T07:03:08.153Z,49.80
2019-06-20T07:04:05.333Z,49.80
2019-06-20T07:05:05.542Z,49.90
2019-06-20T07:06:05.833Z,49.70
2019-06-20T07:07:05.106Z,49.60
2019-06-20T07:08:05.287Z,49.10
2019-06-20T07:09:05.466Z,49.40
2019-06-20T07:10:08.118Z,49.30
2019-06-20T07:11:05.244Z,49.40
2019-06-20T07:12:08.160Z,49.30
2019-06-20T07:13:05.178Z,49.30
2019-06-20T07:14:05.359Z,48.90
2019-06-20T07:15:10.775Z,48.00
2019-06-20T07:16:05.085Z,48.00
2019-06-20T07:17:10.587Z,47.20
2019-06-20T07:18:08.109Z,46.90
2019-06-20T07:19:05.290Z,46.90
2019-06-20T07:20:05.535Z,46.20
2019-06-20T07:21:05.918Z,46.60
2019-06-20T07:22:05.063Z,46.40
2019-06-20T07:23:05.330Z,47.00
2019-06-20T07:24:05.482Z,46.80
2019-06-20T07:25:05.596Z,46.80
2019-06-20T07:26:10.991Z,46.10
2019-06-20T07:27:12.542Z,46.50
2019-06-20T07:28:08.144Z,46.90
2019-06-20T07:29:07.734Z,46.90
2019-06-20T07:30:05.987Z,46.80
2019-06-20T07:31:07.625Z,46.00
2019-06-20T07:32:06.056Z,46.10
2019-06-20T07:33:05.322Z,46.10
2019-06-20T07:34:05.512Z,45.80
2019-06-20T07:35:08.293Z,45.30
2019-06-20T07:36:05.608Z,45.30
2019-06-20T07:37:08.315Z,44.70
2019-06-20T07:38:07.881Z,45.00
2019-06-20T07:39:10.109Z,45.30
2019-06-20T07:40:10.593Z,45.50
2019-06-20T07:41:05.727Z,45.50
2019-06-20T07:42:05.998Z,45.80
2019-06-20T07:43:07.660Z,44.70
2019-06-20T07:44:05.680Z,44.70
2019-06-20T07:45:08.355Z,44.80
2019-06-20T07:46:05.749Z,44.70
2019-06-20T07:47:18.224Z,45.20
2019-06-20T07:48:05.521Z,44.70
2019-06-20T07:49:05.681Z,44.60
2019-06-20T07:50:05.894Z,44.90
2019-06-20T07:51:05.200Z,44.10
2019-06-20T07:52:07.928Z,44.50
2019-06-20T07:53:08.447Z,43.90
2019-06-20T07:54:07.999Z,43.70
2019-06-20T07:55:07.620Z,43.20
2019-06-20T07:56:10.337Z,43.20
2019-06-20T07:57:07.989Z,42.80
2019-06-20T07:58:07.585Z,43.00
2019-06-20T07:59:05.749Z,43.00
2019-06-20T08:00:05.869Z,43.10
2019-06-20T08:01:10.639Z,43.20
2019-06-20T08:02:08.219Z,43.40
2019-06-20T08:03:07.953Z,43.30
2019-06-20T08:04:05.238Z,43.30
2019-06-20T08:05:05.477Z,42.80
2019-06-20T08:06:05.746Z,41.70
2019-06-20T08:07:05.983Z,41.80
2019-06-20T08:08:05.178Z,42.10
2019-06-20T08:09:05.294Z,42.30
2019-06-20T08:10:08.118Z,41.60
2019-06-20T08:11:07.690Z,41.00
2019-06-20T08:12:05.742Z,41.00
2019-06-20T08:13:05.773Z,41.00
2019-06-20T08:14:07.838Z,41.20
2019-06-20T08:15:16.132Z,41.20
2019-06-20T08:16:07.779Z,41.70
2019-06-20T08:17:05.882Z,41.70
2019-06-20T08:18:06.055Z,42.30
2019-06-20T08:19:12.778Z,42.00
2019-06-20T08:20:08.324Z,42.10
2019-06-20T08:21:05.515Z,42.10
2019-06-20T08:22:10.799Z,42.70
2019-06-20T08:23:05.793Z,42.70
2019-06-20T08:24:05.923Z,42.70
2019-06-20T08:25:05.749Z,42.30
2019-06-20T08:26:05.113Z,41.80
2019-06-20T08:27:07.834Z,42.50
2019-06-20T08:28:04.984Z,42.50
2019-06-20T08:29:21.578Z,42.90
2019-06-20T08:30:07.144Z,42.90
2019-06-20T08:31:10.659Z,42.50
2019-06-20T08:32:06.956Z,42.40
2019-06-20T08:33:12.337Z,42.30
2019-06-20T08:34:06.804Z,42.10
2019-06-20T08:35:06.411Z,42.00
2019-06-20T08:36:07.069Z,42.00
2019-06-20T08:37:06.739Z,42.00
2019-06-20T08:38:10.986Z,41.80
2019-06-20T08:39:06.444Z,41.80
2019-06-20T08:40:06.862Z,42.10
2019-06-20T08:41:07.016Z,42.10
2019-06-20T08:42:07.785Z,42.30
2019-06-20T08:43:06.651Z,42.40
2019-06-20T08:44:06.510Z,42.40
2019-06-20T08:45:06.460Z,42.70
2019-06-20T08:46:10.605Z,42.20
2019-06-20T08:47:06.303Z,42.10
2019-06-20T08:48:05.513Z,42.00
2019-06-20T08:49:06.173Z,41.90
2019-06-20T08:50:06.386Z,41.90
2019-06-20T08:51:06.838Z,41.70
2019-06-20T08:52:05.963Z,42.30
2019-06-20T08:53:06.236Z,42.20
2019-06-20T08:54:05.787Z,42.50
2019-06-20T08:55:05.814Z,42.20
2019-06-20T08:56:05.883Z,42.80
2019-06-20T08:57:06.319Z,42.30
2019-06-20T08:58:06.115Z,42.90
2019-06-20T08:59:24.584Z,42.70
2019-06-20T09:01:10.687Z,42.50
2019-06-20T09:02:13.386Z,42.50
2019-06-20T09:03:05.608Z,42.50
2019-06-20T09:04:05.896Z,42.70
2019-06-20T09:05:04.989Z,42.70
2019-06-20T09:06:07.806Z,42.60
2019-06-20T09:07:05.918Z,42.70
2019-06-20T09:08:12.137Z,43.00
2019-06-20T09:09:05.285Z,43.00
2019-06-20T09:10:08.097Z,43.00
2019-06-20T09:11:07.798Z,43.20
2019-06-20T09:12:05.866Z,43.20
2019-06-20T09:13:07.609Z,42.80
2019-06-20T09:14:05.623Z,42.80
2019-06-20T09:15:05.823Z,43.00
2019-06-20T09:16:07.474Z,42.80
2019-06-20T09:17:05.554Z,42.80
2019-06-20T09:18:05.906Z,42.90
2019-06-20T09:19:07.635Z,42.40
2019-06-20T09:20:05.650Z,42.40
2019-06-20T09:21:08.377Z,42.50
2019-06-20T09:22:08.049Z,42.60
2019-06-20T09:23:10.681Z,42.70
2019-06-20T09:24:08.414Z,42.80
2019-06-20T09:25:08.134Z,42.80
2019-06-20T09:26:07.689Z,43.00
2019-06-20T09:27:08.325Z,43.10
2019-06-20T09:28:05.378Z,43.10
2019-06-20T09:29:08.102Z,43.40
2019-06-20T09:30:10.696Z,43.30
2019-06-20T09:31:05.765Z,43.30
2019-06-20T09:32:05.867Z,43.40
2019-06-20T09:33:07.485Z,42.70
2019-06-20T09:34:05.838Z,42.70
2019-06-20T09:35:05.003Z,43.30
2019-06-20T09:36:05.315Z,42.00
2019-06-20T09:37:08.177Z,42.20
2019-06-20T09:38:05.391Z,42.20
2019-06-20T09:39:05.698Z,42.40
2019-06-20T09:40:08.646Z,42.60
2019-06-20T09:41:05.198Z,42.60
2019-06-20T09:42:05.641Z,42.70
2019-06-20T09:43:08.518Z,42.20
2019-06-20T09:44:05.712Z,42.20
2019-06-20T09:45:08.580Z,41.60
2019-06-20T09:46:05.715Z,41.70
2019-06-20T09:47:05.888Z,41.80
2019-06-20T09:48:10.744Z,42.30
2019-06-20T09:49:08.243Z,42.10
2019-06-20T09:50:07.761Z,42.00
2019-06-20T09:51:05.807Z,42.00
2019-06-20T09:52:08.509Z,42.10
2019-06-20T09:53:05.655Z,42.10
2019-06-20T09:54:08.333Z,42.30
2019-06-20T09:55:05.440Z,42.30
2019-06-20T09:56:05.684Z,42.30
2019-06-20T09:57:05.814Z,41.80
2019-06-20T09:58:07.644Z,41.20
2019-06-20T09:59:08.351Z,41.30
2019-06-20T10:00:10.963Z,41.30
2019-06-20T10:01:05.363Z,41.30
2019-06-20T10:02:05.688Z,41.40
2019-06-20T10:03:05.791Z,41.00
2019-06-20T10:04:06.147Z,40.50
2019-06-20T10:05:05.427Z,40.80
2019-06-20T10:06:14.621Z,41.00
2019-06-20T10:07:08.450Z,41.40
2019-06-20T10:08:08.005Z,41.60
2019-06-20T10:09:05.032Z,41.60
2019-06-20T10:10:05.174Z,41.00
2019-06-20T10:11:05.303Z,40.80
2019-06-20T10:12:08.000Z,40.60
2019-06-20T10:13:05.038Z,40.70
2019-06-20T10:14:07.901Z,40.90
2019-06-20T10:15:04.967Z,40.90
2019-06-20T10:16:10.729Z,40.90
2019-06-20T10:17:05.977Z,40.90
2019-06-20T10:18:05.198Z,41.30
2019-06-20T10:19:05.447Z,41.30
2019-06-20T10:20:05.216Z,41.30
2019-06-20T10:21:05.220Z,41.20
2019-06-20T10:22:07.923Z,41.40
2019-06-20T10:23:05.092Z,41.40
2019-06-20T10:24:05.191Z,41.80
2019-06-20T10:25:05.317Z,41.80
2019-06-20T10:26:08.131Z,42.20
2019-06-20T10:27:07.918Z,41.50
2019-06-20T10:28:07.583Z,41.10
2019-06-20T10:29:08.104Z,41.30
2019-06-20T10:30:14.878Z,41.40
2019-06-20T10:31:05.523Z,41.80
2019-06-20T10:32:05.827Z,41.90
2019-06-20T10:33:04.951Z,42.30
2019-06-20T10:34:05.065Z,42.20
2019-06-20T10:35:10.842Z,42.40
2019-06-20T10:36:05.906Z,42.40
2019-06-20T10:37:07.790Z,42.30
2019-06-20T10:38:08.383Z,41.90
2019-06-20T10:39:07.927Z,41.70
2019-06-20T10:40:10.760Z,41.10
2019-06-20T10:41:08.479Z,40.80
2019-06-20T10:42:08.264Z,41.20
2019-06-20T10:43:07.781Z,41.00
2019-06-20T10:44:05.997Z,41.00
2019-06-20T10:45:05.331Z,41.20
2019-06-20T10:46:08.126Z,41.40
2019-06-20T10:47:05.283Z,41.40
2019-06-20T10:48:07.910Z,40.90
2019-06-20T10:49:08.566Z,40.60
2019-06-20T10:50:08.383Z,40.40
2019-06-20T10:51:08.076Z,40.30
2019-06-20T10:52:07.942Z,40.20
2019-06-20T10:53:04.944Z,40.70
2019-06-20T10:54:07.571Z,41.20
2019-06-20T10:55:05.818Z,41.20
2019-06-20T10:56:05.161Z,41.00
2019-06-20T10:57:05.313Z,40.20
2019-06-20T10:58:08.126Z,40.90
2019-06-20T10:59:05.297Z,40.90
2019-06-20T11:00:05.570Z,41.10
2019-06-20T11:01:08.302Z,39.90
2019-06-20T11:02:07.748Z,40.00
2019-06-20T11:03:08.512Z,39.20
2019-06-20T11:04:08.071Z,39.30
2019-06-20T11:05:05.213Z,39.40
2019-06-20T11:06:05.408Z,39.00
2019-06-20T11:07:08.090Z,38.60
2019-06-20T11:08:05.219Z,38.70
2019-06-20T11:09:05.589Z,38.50
2019-06-20T11:10:08.461Z,38.50
2019-06-20T11:11:05.649Z,38.50
2019-06-20T11:12:08.532Z,38.30
2019-06-20T11:13:05.575Z,38.30
2019-06-20T11:14:13.410Z,38.10
2019-06-20T11:15:08.073Z,37.60
2019-06-20T11:16:05.103Z,37.60
2019-06-20T11:17:05.347Z,37.50
2019-06-20T11:18:05.422Z,37.40
2019-06-20T11:19:05.612Z,37.10
2019-06-20T11:20:08.390Z,37.70
2019-06-20T11:21:08.225Z,38.00
2019-06-20T11:22:05.287Z,38.00
2019-06-20T11:23:05.408Z,38.10
2019-06-20T11:24:08.225Z,38.70
2019-06-20T11:25:05.544Z,38.70
2019-06-20T11:26:05.809Z,38.80
2019-06-20T11:27:05.026Z,39.00
2019-06-20T11:28:05.322Z,39.00
2019-06-20T11:29:05.544Z,38.40
2019-06-20T11:30:05.677Z,38.50
2019-06-20T11:31:05.953Z,38.10
2019-06-20T11:32:07.746Z,38.00
2019-06-20T11:33:08.557Z,38.30
2019-06-20T11:34:08.129Z,38.50
2019-06-20T11:35:05.404Z,38.50
2019-06-20T11:36:08.295Z,38.30
2019-06-20T11:37:07.894Z,37.90
2019-06-20T11:38:08.430Z,37.50
2019-06-20T11:39:08.105Z,37.10
2019-06-20T11:40:05.061Z,37.10
2019-06-20T11:41:07.725Z,36.80
2019-06-20T11:42:05.713Z,36.80
2019-06-20T11:43:08.387Z,37.50
2019-06-20T11:44:05.461Z,37.50
2019-06-20T11:45:08.265Z,38.20
2019-06-20T11:46:05.366Z,38.20
2019-06-20T11:47:08.131Z,38.60
2019-06-20T11:48:07.771Z,38.80
2019-06-20T11:49:05.828Z,38.70
2019-06-20T11:50:04.947Z,38.60
2019-06-20T11:51:10.784Z,38.60
2019-06-20T11:52:05.951Z,38.60
2019-06-20T11:53:07.674Z,38.80
2019-06-20T11:54:08.424Z,38.20
2019-06-20T11:55:05.518Z,38.20
2019-06-20T11:56:05.787Z,38.20
2019-06-20T11:57:08.505Z,38.00
2019-06-20T11:58:08.117Z,38.00
2019-06-20T11:59:05.197Z,38.00
2019-06-20T12:00:05.497Z,37.90
2019-06-20T12:01:05.712Z,37.80
2019-06-20T12:02:08.453Z,36.80
2019-06-20T12:03:08.049Z,36.60
2019-06-20T12:04:05.102Z,36.60
2019-06-20T12:05:07.709Z,37.10
2019-06-20T12:06:05.796Z,37.10
2019-06-20T12:07:06.026Z,36.70
2019-06-20T12:08:05.360Z,36.70
2019-06-20T12:09:08.207Z,36.70
2019-06-20T12:10:05.222Z,36.70
2019-06-20T12:11:05.401Z,36.70
2019-06-20T12:12:05.528Z,36.70
2019-06-20T12:13:05.681Z,36.70
2019-06-20T12:14:05.817Z,36.80
2019-06-20T12:15:07.456Z,36.40
2019-06-20T12:16:05.724Z,36.10
2019-06-20T12:17:08.435Z,35.50
2019-06-20T12:18:05.507Z,35.50
2019-06-20T12:19:05.689Z,35.60
2019-06-20T12:20:06.059Z,36.00
2019-06-20T12:21:05.361Z,36.10
2019-06-20T12:22:05.574Z,36.30
2019-06-20T12:23:05.813Z,36.10
2019-06-20T12:24:10.410Z,35.90
2019-06-20T12:25:08.096Z,35.20
2019-06-20T12:26:10.848Z,35.10
2019-06-20T12:27:05.983Z,35.10
2019-06-20T12:28:05.312Z,35.40
2019-06-20T12:29:05.616Z,35.30
2019-06-20T12:30:08.470Z,35.30
2019-06-20T12:31:20.019Z,35.40
2019-06-20T12:32:05.185Z,35.20
2019-06-20T12:33:05.362Z,34.70
2019-06-20T12:34:05.888Z,35.30
2019-06-20T12:35:05.048Z,35.20
2019-06-20T12:36:10.898Z,35.40
2019-06-20T12:37:05.985Z,35.50
2019-06-20T12:38:07.632Z,36.00
2019-06-20T12:39:08.134Z,35.80
2019-06-20T12:40:05.348Z,35.80
2019-06-20T12:41:05.608Z,35.50
2019-06-20T12:42:05.974Z,35.10
2019-06-20T12:43:05.584Z,34.50
2019-06-20T12:44:08.574Z,34.50
2019-06-20T12:45:05.824Z,34.50
2019-06-20T12:46:10.383Z,34.70
2019-06-20T12:47:08.419Z,34.30
2019-06-20T12:48:05.921Z,34.40
2019-06-20T12:49:05.516Z,34.40
2019-06-20T12:50:10.882Z,34.00
2019-06-20T12:51:06.290Z,34.00
2019-06-20T12:52:08.218Z,33.90
2019-06-20T12:53:05.832Z,33.90